createdAt,value
2024-04-14T08:02:40.112Z,62.18
2024-04-14T08:12:47.625Z,57.93
2024-04-14T08:22:55.036Z,57.93
2024-04-14T08:33:02.328Z,56.83
2024-04-14T08:43:10.347Z,56.74
2024-04-14T08:53:17.845Z,52.55
2024-04-14T09:03:25.109Z,51.41
2024-04-14T09:13:33.076Z,51.36
2024-04-14T09:23:41.686Z,47.09
2024-04-14T09:33:49.281Z,51.66
2024-04-14T09:43:56.576Z,50.05
2024-04-14T09:54:04.410Z,47.93
2024-04-14T10:04:12.576Z,48.35
2024-04-14T10:14:21.445Z,47.07
2024-04-14T10:24:28.899Z,46.03
2024-04-14T10:34:36.657Z,40.78
2024-04-14T10:44:48.615Z,41.21
2024-04-14T10:54:56.827Z,37.88
2024-04-14T11:05:05.126Z,37.62
2024-04-14T11:15:13.004Z,37.23
2024-04-14T11:25:20.771Z,36.89
2024-04-14T11:35:29.182Z,33.01
2024-04-14T11:45:37.660Z,33.11
2024-04-14T11:55:45.721Z,29.71
2024-04-14T12:05:53.404Z,34.26
2024-04-14T12:16:01.013Z,29.95
2024-04-14T12:26:09.546Z,32.79
2024-04-14T12:36:16.596Z,22.81
2024-04-14T12:46:25.504Z,24.07
2024-04-14T12:56:34.556Z,23.58
2024-04-14T13:06:41.087Z,25.83
2024-04-14T13:16:50.865Z,24.13
2024-04-14T13:26:59.580Z,21.43
2024-04-14T13:37:07.174Z,24.6
2024-04-14T13:47:15.521Z,22.42
2024-04-14T13:57:23.391Z,20.83
2024-04-14T14:07:31.369Z,19.15
2024-04-14T14:17:39.801Z,17.06
2024-04-14T14:27:48.249Z,20.12
2024-04-14T14:37:56.172Z,18.8
2024-04-14T14:48:10.708Z,18.12
2024-04-14T14:58:18.753Z,19.43
2024-04-14T15:08:26.643Z,18.57
2024-04-14T15:18:34.237Z,21.45
2024-04-14T15:28:41.983Z,18.53
2024-04-14T15:38:50.455Z,20.75
2024-04-14T15:48:57.769Z,20.2
2024-04-14T15:59:05.911Z,21.45
2024-04-14T16:09:13.959Z,21.73
2024-04-14T16:19:20.796Z,27.75
2024-04-14T16:29:27.336Z,34.55
2024-04-14T16:39:32.755Z,38.12
2024-04-14T16:49:38.945Z,38.94
2024-04-14T16:59:45.424Z,40.67
2024-04-14T17:09:52.230Z,43
2024-04-14T17:19:59.396Z,42.11
2024-04-14T17:30:06.039Z,44.87
2024-04-14T17:40:13.084Z,45.54
2024-04-14T17:50:20.692Z,45.53
2024-04-14T18:00:27.599Z,48.25
2024-04-14T18:10:34.631Z,49.28
2024-04-14T18:20:46.942Z,50.63
2024-04-14T18:30:55.010Z,51.11
2024-04-14T18:41:02.082Z,53.88
2024-04-14T18:51:08.652Z,56.8
2024-04-14T19:01:15.829Z,56.86
2024-04-14T19:11:23.441Z,55.14
2024-04-14T19:21:31.179Z,54.15
2024-04-14T19:31:38.641Z,53.25
2024-04-14T19:41:46.181Z,54.21
2024-04-14T19:51:53.131Z,54.25
2024-04-14T20:02:01.120Z,53.74
2024-04-14T20:12:09.026Z,52.92
2024-04-14T20:22:16.661Z,52.39
2024-04-14T20:32:24.361Z,52.91
2024-04-14T20:42:31.752Z,54.25
2024-04-14T20:52:38.797Z,55.93
2024-04-14T21:02:46.255Z,56.41
2024-04-14T21:12:53.394Z,55.68
2024-04-14T21:23:01.542Z,58.52
2024-04-14T21:33:08.619Z,61.07
2024-04-14T21:43:16.632Z,62.77
2024-04-14T21:53:23.989Z,66.38
